EDT,Max TemperatureF,Mean TemperatureF,Min TemperatureF,Max Dew PointF,MeanDew PointF,Min DewpointF,Max Humidity, Mean Humidity, Min Humidity, Max Sea Level PressureIn, Mean Sea Level PressureIn, Min Sea Level PressureIn, Max VisibilityMiles, Mean VisibilityMiles, Min VisibilityMiles, Max Wind SpeedMPH, Mean Wind SpeedMPH, Max Gust SpeedMPH,PrecipitationIn, CloudCover, Events, WindDirDegrees
2013-10-1,80,66,53,63,57,53,100,86,45,30.18,30.12,30.06,10,7,0,7,1,,0.00,1,Fog,247
2013-10-2,82,68,55,65,60,55,100,87,47,30.17,30.13,30.08,10,7,0,5,0,,0.01,2,Fog,244
2013-10-3,82,70,59,67,61,57,100,80,45,30.15,30.11,30.07,10,9,5,7,1,,0.00,1,,219
2013-10-4,84,70,57,66,61,57,100,82,42,30.18,30.13,30.08,10,8,0,6,1,,0.00,1,Fog,237
2013-10-5,84,70,57,66,62,57,100,82,47,30.15,30.10,30.03,10,8,0,6,0,,0.01,2,Fog,238
2013-10-6,82,72,62,68,63,61,100,78,49,30.04,29.96,29.85,10,9,4,8,1,,0.01,2,Rain,156
2013-10-7,78,70,62,70,67,52,100,87,63,29.97,29.87,29.81,10,9,1,12,3,21,0.71,6,Rain-Thunderstorm,267
2013-10-8,71,65,60,54,50,46,72,61,47,30.17,30.08,29.96,10,10,10,21,11,30,0.00,6,,60
2013-10-9,73,64,55,52,45,41,84,55,33,30.22,30.16,30.11,10,10,10,15,9,23,0.00,2,,48
2013-10-10,78,63,48,58,52,46,93,70,39,30.13,30.07,30.00,10,10,10,8,3,,0.00,0,,314
2013-10-11,81,66,53,60,56,52,100,80,40,30.03,29.99,29.93,10,9,0,9,1,,0.00,1,Fog,275
2013-10-12,81,67,54,63,57,53,97,73,42,30.08,30.02,29.97,10,10,10,8,1,,0.00,3,,79
2013-10-13,78,70,66,63,62,61,90,77,62,30.21,30.15,30.09,10,10,10,10,3,,0.00,8,,61
2013-10-14,72,68,64,63,61,60,94,84,69,30.24,30.18,30.14,10,10,10,12,7,16,0.00,8,,64
2013-10-15,69,64,59,61,58,56,96,83,65,30.19,30.13,30.06,10,10,10,12,7,,0.00,5,,44
2013-10-16,72,64,55,61,56,50,100,81,46,30.07,30.02,29.97,10,9,2,6,1,,0.01,2,,346
2013-10-17,69,64,61,67,64,60,100,95,84,29.97,29.92,29.88,10,6,2,8,2,,0.11,7,Rain,222
2013-10-18,73,66,59,64,60,55,100,86,57,30.03,29.95,29.90,10,7,0,8,2,,0.00,5,Fog,5
2013-10-19,66,60,55,59,57,54,100,90,70,29.97,29.93,29.90,10,9,5,13,2,,0.01,4,Rain,240
2013-10-20,69,54,41,52,46,41,100,85,42,30.08,30.01,29.96,10,6,0,7,2,,0.01,0,Fog,58
2013-10-21,68,57,46,57,51,44,96,81,61,30.15,30.09,30.02,10,10,8,6,3,,0.00,2,,45
2013-10-22,69,62,55,58,55,49,100,85,52,30.04,29.92,29.83,10,8,2,10,2,,0.01,5,,223
2013-10-23,64,53,39,53,43,30,100,68,31,30.06,29.86,29.77,10,8,1,21,5,28,0.00,0,,272
2013-10-24,64,48,33,44,37,32,100,69,38,30.19,30.13,30.07,10,10,10,10,3,,0.00,1,,268
2013-10-25,57,45,35,40,32,23,96,63,29,30.37,30.30,30.18,10,10,10,8,4,,0.00,0,,36
2013-10-26,59,44,30,37,32,28,92,62,39,30.35,30.26,30.13,10,10,10,14,6,20,0.00,0,,230
2013-10-27,71,55,39,53,45,34,93,66,45,30.14,30.10,30.06,10,10,10,12,5,16,0.00,1,,252
2013-10-28,66,60,53,57,54,52,96,81,60,30.27,30.21,30.12,10,10,8,10,3,,0.01,6,Rain,250
2013-10-29,73,60,46,55,49,46,100,91,44,30.35,30.28,30.25,10,4,0,9,1,,0.01,1,Fog,322
2013-10-30,77,65,53,58,55,52,100,80,47,30.31,30.24,30.17,10,9,5,9,1,,0.00,2,,230
2013-10-31,75,64,54,62,57,53,100,77,55,30.17,30.06,29.89,10,10,5,14,3,20,0.00,3,,186